createdAt,value
2019-05-19T04:23:48.410Z,992.65
2019-05-19T04:24:48.395Z,992.65
2019-05-19T04:26:52.373Z,992.64
2019-05-19T04:27:52.368Z,992.65
2019-05-19T04:29:56.348Z,992.68
2019-05-19T04:30:56.318Z,992.69
2019-05-19T04:32:49.722Z,992.71
2019-05-19T04:33:49.710Z,992.73
2019-05-19T04:34:49.716Z,992.74
2019-05-19T04:35:49.691Z,992.73
2019-05-19T04:36:49.690Z,992.72
2019-05-19T04:37:49.700Z,992.68
2019-05-19T04:38:49.697Z,992.73
2019-05-19T04:39:49.694Z,992.71
2019-05-19T04:40:49.672Z,992.73
2019-05-19T04:41:49.669Z,992.70
2019-05-19T04:42:49.672Z,992.69
2019-05-19T04:43:49.671Z,992.67
2019-05-19T04:44:49.674Z,992.69
2019-05-19T04:45:49.658Z,992.66
2019-05-19T04:46:49.680Z,992.70
2019-05-19T04:47:49.659Z,992.69
2019-05-19T04:48:49.651Z,992.69
2019-05-19T04:49:49.663Z,992.72
2019-05-19T04:50:49.639Z,992.70
2019-05-19T04:52:05.450Z,992.68
2019-05-19T04:52:49.633Z,992.68
2019-05-19T04:53:49.638Z,992.65
2019-05-19T04:54:49.634Z,992.66
2019-05-19T04:55:49.627Z,992.65
2019-05-19T04:56:49.628Z,992.67
2019-05-19T04:57:49.620Z,992.68
2019-05-19T04:58:49.622Z,992.65
2019-05-19T04:59:49.630Z,992.65
2019-05-19T05:00:49.637Z,992.65
2019-05-19T05:01:49.598Z,992.65
2019-05-19T05:02:49.606Z,992.66
2019-05-19T05:03:49.602Z,992.68
2019-05-19T05:04:49.606Z,992.68
2019-05-19T05:05:49.591Z,992.69
2019-05-19T05:06:49.594Z,992.70
2019-05-19T05:07:49.588Z,992.69
2019-05-19T05:08:49.591Z,992.70
2019-05-19T05:09:49.582Z,992.66
2019-05-19T05:10:49.584Z,992.68
2019-05-19T05:11:49.574Z,992.67
2019-05-19T05:12:49.578Z,992.69
2019-05-19T05:13:49.572Z,992.71
2019-05-19T05:14:49.567Z,992.70
2019-05-19T05:15:49.570Z,992.72
2019-05-19T05:16:49.567Z,992.70
2019-05-19T05:17:49.556Z,992.72
2019-05-19T05:18:49.551Z,992.69
2019-05-19T05:19:49.558Z,992.65
2019-05-19T05:20:49.553Z,992.70
2019-05-19T05:21:49.583Z,992.69
2019-05-19T05:22:49.543Z,992.67
2019-05-19T05:23:49.542Z,992.73
2019-05-19T05:24:49.539Z,992.71
2019-05-19T05:25:49.538Z,992.70
2019-05-19T05:26:49.543Z,992.74
2019-05-19T05:27:49.531Z,992.74
2019-05-19T05:28:49.527Z,992.72
2019-05-19T05:29:49.522Z,992.75
2019-05-19T05:30:49.541Z,992.73
2019-05-19T05:31:49.533Z,992.75
2019-05-19T05:32:49.518Z,992.77
2019-05-19T05:33:49.521Z,992.72
2019-05-19T05:34:49.508Z,992.74
2019-05-19T05:35:49.530Z,992.77
2019-05-19T05:36:49.529Z,992.75
2019-05-19T05:37:49.514Z,992.76
2019-05-19T05:38:49.509Z,992.74
2019-05-19T05:39:49.526Z,992.75
2019-05-19T05:40:49.494Z,992.70
2019-05-19T05:41:49.502Z,992.70
2019-05-19T05:42:49.516Z,992.68
2019-05-19T05:43:49.557Z,992.66
2019-05-19T05:44:49.554Z,992.67
2019-05-19T05:45:49.483Z,992.68
2019-05-19T05:46:49.478Z,992.63
2019-05-19T05:47:49.480Z,992.65
2019-05-19T05:48:49.485Z,992.67
2019-05-19T05:49:50.281Z,992.70
2019-05-19T05:50:49.464Z,992.66
2019-05-19T05:51:49.463Z,992.65
2019-05-19T05:52:49.464Z,992.67
2019-05-19T05:53:49.461Z,992.63
2019-05-19T05:54:49.458Z,992.66
2019-05-19T05:55:49.461Z,992.67
2019-05-19T05:56:49.459Z,992.71
2019-05-19T05:57:49.450Z,992.71
2019-05-19T05:58:49.446Z,992.73
2019-05-19T05:59:49.452Z,992.73
2019-05-19T06:00:49.439Z,992.75
2019-05-19T06:01:49.438Z,992.74
2019-05-19T06:02:49.436Z,992.76
2019-05-19T06:03:49.447Z,992.75
2019-05-19T06:04:49.448Z,992.72
2019-05-19T06:05:49.429Z,992.76
2019-05-19T06:06:49.428Z,992.73
2019-05-19T06:07:49.421Z,992.75
2019-05-19T06:08:49.422Z,992.71
2019-05-19T06:09:49.421Z,992.73
2019-05-19T06:10:49.424Z,992.73
2019-05-19T06:11:49.421Z,992.74
2019-05-19T06:12:49.409Z,992.74
2019-05-19T06:13:49.847Z,992.73
2019-05-19T06:14:49.403Z,992.73
2019-05-19T06:15:49.427Z,992.76
2019-05-19T06:16:49.405Z,992.76
2019-05-19T06:17:49.403Z,992.75
2019-05-19T06:18:49.391Z,992.75
2019-05-19T06:19:49.410Z,992.76
2019-05-19T06:20:49.406Z,992.78
2019-05-19T06:21:49.401Z,992.77
2019-05-19T06:22:56.281Z,992.77
2019-05-19T06:23:49.402Z,992.76
2019-05-19T06:24:49.379Z,992.79
2019-05-19T06:25:49.431Z,992.78
2019-05-19T06:26:49.373Z,992.79
2019-05-19T06:27:49.372Z,992.78
2019-05-19T06:28:49.369Z,992.79
2019-05-19T06:29:49.363Z,992.80
2019-05-19T06:30:49.371Z,992.79
2019-05-19T06:31:49.362Z,992.82
2019-05-19T06:32:49.367Z,992.79
2019-05-19T06:33:49.361Z,992.82
2019-05-19T06:34:49.349Z,992.82
2019-05-19T06:35:49.361Z,992.81
2019-05-19T06:36:49.356Z,992.83
2019-05-19T06:37:49.345Z,992.88
2019-05-19T06:38:49.354Z,992.87
2019-05-19T06:39:49.353Z,992.88
2019-05-19T06:40:49.339Z,992.89
2019-05-19T06:41:49.343Z,992.90
2019-05-19T06:42:49.337Z,992.88
2019-05-19T06:43:49.342Z,992.87
2019-05-19T06:44:49.333Z,992.87
2019-05-19T06:45:49.323Z,992.89
2019-05-19T06:46:49.324Z,992.88
2019-05-19T06:47:49.328Z,992.86
2019-05-19T06:48:49.323Z,992.88
2019-05-19T06:49:49.321Z,992.84
2019-05-19T06:50:49.315Z,992.81
2019-05-19T06:51:49.310Z,992.80
2019-05-19T06:52:49.311Z,992.78
2019-05-19T06:53:49.318Z,992.79
2019-05-19T06:54:49.313Z,992.76
2019-05-19T06:55:49.307Z,992.80
2019-05-19T06:56:49.299Z,992.81
2019-05-19T06:57:49.303Z,992.80
2019-05-19T06:58:49.304Z,992.85
2019-05-19T06:59:49.301Z,992.84
2019-05-19T07:00:49.291Z,992.83
2019-05-19T07:01:49.297Z,992.80
2019-05-19T07:02:49.289Z,992.81
2019-05-19T07:03:49.296Z,992.80
2019-05-19T07:04:49.285Z,992.77
2019-05-19T07:05:49.302Z,992.71
2019-05-19T07:06:49.298Z,992.69
2019-05-19T07:07:49.274Z,992.70
2019-05-19T07:08:49.276Z,992.68
2019-05-19T07:09:58.075Z,992.66
2019-05-19T07:10:49.269Z,992.70
2019-05-19T07:11:49.299Z,992.64
2019-05-19T07:12:49.300Z,992.64
2019-05-19T07:13:49.282Z,992.63
2019-05-19T07:14:49.260Z,992.64
2019-05-19T07:15:49.273Z,992.64
2019-05-19T07:16:49.270Z,992.68
2019-05-19T07:17:49.264Z,992.68
2019-05-19T07:18:49.256Z,992.70
2019-05-19T07:19:49.252Z,992.69
2019-05-19T07:20:49.270Z,992.72
2019-05-19T07:21:49.263Z,992.71
2019-05-19T07:22:49.253Z,992.72
2019-05-19T07:23:49.249Z,992.72
2019-05-19T07:24:49.244Z,992.71
2019-05-19T07:25:49.252Z,992.71
2019-05-19T07:26:49.263Z,992.70
2019-05-19T07:27:49.245Z,992.69
2019-05-19T07:28:49.243Z,992.69
2019-05-19T07:29:49.248Z,992.74
2019-05-19T07:30:49.232Z,992.70
2019-05-19T07:31:49.253Z,992.67
2019-05-19T07:32:49.235Z,992.74
2019-05-19T07:33:49.232Z,992.72
2019-05-19T07:34:49.238Z,992.74
2019-05-19T07:35:49.240Z,992.75
2019-05-19T07:36:49.231Z,992.77
2019-05-19T07:37:49.223Z,992.74
2019-05-19T07:38:49.227Z,992.75
2019-05-19T07:39:49.220Z,992.78
2019-05-19T07:40:49.222Z,992.75
2019-05-19T07:41:49.217Z,992.77
2019-05-19T07:42:49.208Z,992.83
2019-05-19T07:43:49.214Z,992.81
2019-05-19T07:44:49.212Z,992.83
2019-05-19T07:45:49.223Z,992.84
2019-05-19T07:46:49.221Z,992.85
2019-05-19T07:47:49.216Z,992.81
2019-05-19T07:48:49.207Z,992.83
2019-05-19T07:49:49.207Z,992.77
2019-05-19T07:50:49.197Z,992.78
2019-05-19T07:51:49.227Z,992.73
2019-05-19T07:52:49.209Z,992.75
2019-05-19T07:53:49.198Z,992.71
2019-05-19T07:54:49.205Z,992.73
2019-05-19T07:55:49.221Z,992.72
2019-05-19T07:56:49.218Z,992.73
2019-05-19T07:57:49.206Z,992.72
2019-05-19T07:58:49.213Z,992.73
2019-05-19T07:59:49.184Z,992.68
2019-05-19T08:00:49.195Z,992.71
2019-05-19T08:01:49.188Z,992.71
2019-05-19T08:02:49.179Z,992.70
2019-05-19T08:03:49.189Z,992.69
2019-05-19T08:04:49.189Z,992.70
2019-05-19T08:05:49.186Z,992.73
2019-05-19T08:06:49.178Z,992.68
2019-05-19T08:07:49.232Z,992.74
2019-05-19T08:08:49.192Z,992.74
2019-05-19T08:09:49.177Z,992.72
2019-05-19T08:10:49.180Z,992.77
2019-05-19T08:11:49.188Z,992.79
2019-05-19T08:12:49.180Z,992.81
2019-05-19T08:13:49.202Z,992.82
2019-05-19T08:14:49.176Z,992.77
2019-05-19T08:15:49.179Z,992.77
2019-05-19T08:16:49.174Z,992.81
2019-05-19T08:17:49.174Z,992.80
2019-05-19T08:18:49.170Z,992.83
2019-05-19T08:19:49.171Z,992.81
2019-05-19T08:20:49.178Z,992.87
2019-05-19T08:21:49.170Z,992.84
2019-05-19T08:22:51.256Z,992.86
2019-05-19T08:23:59.763Z,992.86
2019-05-19T08:24:49.180Z,992.84
2019-05-19T08:25:49.220Z,992.84
2019-05-19T08:26:49.183Z,992.90
2019-05-19T08:27:49.179Z,992.89
2019-05-19T08:28:49.176Z,992.91
2019-05-19T08:29:49.181Z,992.88
2019-05-19T08:30:49.169Z,992.85
2019-05-19T08:31:49.214Z,992.86
2019-05-19T08:32:49.185Z,992.86
2019-05-19T08:33:49.187Z,992.84
2019-05-19T08:34:49.186Z,992.83
2019-05-19T08:35:49.181Z,992.85
2019-05-19T08:36:49.328Z,992.82
2019-05-19T08:37:49.183Z,992.83
2019-05-19T08:38:49.190Z,992.83
2019-05-19T08:39:49.191Z,992.78
2019-05-19T08:40:49.207Z,992.81
2019-05-19T08:41:49.187Z,992.81
2019-05-19T08:42:49.198Z,992.81
2019-05-19T08:43:49.191Z,992.82
2019-05-19T08:44:49.189Z,992.81
2019-05-19T08:45:49.184Z,992.83
2019-05-19T08:46:49.199Z,992.82
2019-05-19T08:47:49.184Z,992.80
2019-05-19T08:48:49.257Z,992.80
2019-05-19T08:49:49.196Z,992.84
2019-05-19T08:50:49.196Z,992.82
2019-05-19T08:51:49.193Z,992.84
2019-05-19T08:52:49.196Z,992.84
2019-05-19T08:53:49.199Z,992.84
2019-05-19T08:54:49.204Z,992.86
2019-05-19T08:55:49.208Z,992.88
2019-05-19T08:56:49.197Z,992.87
2019-05-19T08:57:49.199Z,992.85
2019-05-19T08:58:49.201Z,992.84
2019-05-19T08:59:49.201Z,992.82
2019-05-19T09:00:49.205Z,992.82
2019-05-19T09:01:49.217Z,992.81
2019-05-19T09:02:49.211Z,992.78
2019-05-19T09:03:49.204Z,992.73
2019-05-19T09:04:49.215Z,992.72
2019-05-19T09:05:49.216Z,992.76
2019-05-19T09:06:49.214Z,992.70
2019-05-19T09:07:49.212Z,992.73
2019-05-19T09:08:49.216Z,992.74
2019-05-19T09:09:49.212Z,992.75
2019-05-19T09:10:49.216Z,992.74
2019-05-19T09:11:49.217Z,992.73
2019-05-19T09:12:49.211Z,992.74
2019-05-19T09:13:49.224Z,992.78
2019-05-19T09:14:49.225Z,992.76
2019-05-19T09:15:49.223Z,992.76
2019-05-19T09:16:49.217Z,992.71
2019-05-19T09:17:49.232Z,992.75
2019-05-19T09:18:49.224Z,992.77
2019-05-19T09:19:49.225Z,992.73
2019-05-19T09:20:49.224Z,992.76
2019-05-19T09:21:49.237Z,992.74
2019-05-19T09:22:49.225Z,992.71
2019-05-19T09:23:49.222Z,992.72
2019-05-19T09:24:49.226Z,992.72
2019-05-19T09:25:49.231Z,992.68
2019-05-19T09:26:49.234Z,992.70
2019-05-19T09:27:49.226Z,992.72
2019-05-19T09:28:49.235Z,992.67
2019-05-19T09:29:49.230Z,992.68
2019-05-19T09:30:49.233Z,992.64
2019-05-19T09:31:49.238Z,992.68
2019-05-19T09:32:49.248Z,992.65
2019-05-19T09:33:49.232Z,992.62
2019-05-19T09:34:49.238Z,992.62
2019-05-19T09:35:49.235Z,992.63
2019-05-19T09:36:49.236Z,992.65
2019-05-19T09:37:49.239Z,992.64
2019-05-19T09:38:49.238Z,992.65
2019-05-19T09:39:49.240Z,992.67
2019-05-19T09:40:49.331Z,992.69
2019-05-19T09:41:49.246Z,992.66
2019-05-19T09:42:49.253Z,992.67
2019-05-19T09:43:49.236Z,992.67
2019-05-19T09:44:49.426Z,992.67
2019-05-19T09:45:49.276Z,992.63
2019-05-19T09:46:49.242Z,992.67
2019-05-19T09:47:49.243Z,992.66
2019-05-19T09:48:49.239Z,992.67
2019-05-19T09:49:49.245Z,992.68
2019-05-19T09:50:49.236Z,992.67
2019-05-19T09:51:49.266Z,992.66
2019-05-19T09:52:49.247Z,992.68
2019-05-19T09:53:49.244Z,992.64
2019-05-19T09:54:49.245Z,992.68
2019-05-19T09:55:49.278Z,992.68
2019-05-19T09:56:49.249Z,992.66
2019-05-19T09:57:49.248Z,992.69
2019-05-19T09:58:49.249Z,992.63
2019-05-19T09:59:49.250Z,992.63
2019-05-19T10:00:49.263Z,992.61
2019-05-19T10:01:49.258Z,992.63
2019-05-19T10:02:49.270Z,992.57
2019-05-19T10:03:49.270Z,992.59
2019-05-19T10:04:49.260Z,992.58
2019-05-19T10:05:49.254Z,992.61
2019-05-19T10:06:49.282Z,992.60
2019-05-19T10:07:49.252Z,992.58
2019-05-19T10:08:49.257Z,992.60
2019-05-19T10:09:49.260Z,992.59
2019-05-19T10:10:49.254Z,992.60
2019-05-19T10:11:49.267Z,992.54
2019-05-19T10:12:49.262Z,992.55
2019-05-19T10:13:49.260Z,992.55
2019-05-19T10:14:49.264Z,992.55
2019-05-19T10:15:49.267Z,992.55
2019-05-19T10:16:49.672Z,992.53
2019-05-19T10:17:49.263Z,992.52
2019-05-19T10:18:49.281Z,992.46
2019-05-19T10:19:49.270Z,992.43
2019-05-19T10:20:50.466Z,992.45
2019-05-19T10:21:49.274Z,992.46
2019-05-19T10:22:49.269Z,992.44
2019-05-19T10:23:49.295Z,992.47
2019-05-19T10:25:03.772Z,992.39
2019-05-19T10:25:49.279Z,992.37
2019-05-19T10:26:49.270Z,992.42
2019-05-19T10:27:49.285Z,992.42
2019-05-19T10:28:49.283Z,992.39
2019-05-19T10:29:49.330Z,992.39
2019-05-19T10:30:49.335Z,992.39
2019-05-19T10:31:49.285Z,992.37
2019-05-19T10:32:49.285Z,992.38
2019-05-19T10:33:49.465Z,992.38
2019-05-19T10:34:49.288Z,992.34
2019-05-19T10:35:49.282Z,992.37
2019-05-19T10:36:49.303Z,992.35
2019-05-19T10:37:49.289Z,992.39
2019-05-19T10:38:49.288Z,992.34
2019-05-19T10:39:49.291Z,992.36
2019-05-19T10:40:49.313Z,992.33
2019-05-19T10:41:49.303Z,992.35
2019-05-19T10:42:49.314Z,992.32
2019-05-19T10:43:49.297Z,992.31
2019-05-19T10:44:49.304Z,992.31
2019-05-19T10:45:49.300Z,992.33
2019-05-19T10:46:49.304Z,992.36
2019-05-19T10:47:49.306Z,992.33
2019-05-19T10:48:49.300Z,992.37
2019-05-19T10:49:49.304Z,992.29
2019-05-19T10:50:49.329Z,992.32
2019-05-19T10:51:49.317Z,992.32
2019-05-19T10:52:49.317Z,992.34
2019-05-19T10:53:49.316Z,992.34
2019-05-19T10:54:49.326Z,992.34
2019-05-19T10:55:49.329Z,992.35
2019-05-19T10:56:49.318Z,992.38
2019-05-19T10:57:49.323Z,992.39
2019-05-19T10:58:49.324Z,992.35
2019-05-19T10:59:49.338Z,992.37
2019-05-19T11:00:49.334Z,992.36
2019-05-19T11:01:49.343Z,992.35
2019-05-19T11:02:49.350Z,992.38
2019-05-19T11:03:49.332Z,992.37
2019-05-19T11:04:49.338Z,992.40
2019-05-19T11:05:49.330Z,992.36
2019-05-19T11:06:49.336Z,992.36
2019-05-19T11:07:49.354Z,992.38
2019-05-19T11:08:49.346Z,992.33
2019-05-19T11:09:49.371Z,992.29
2019-05-19T11:10:49.347Z,992.37
2019-05-19T11:11:49.343Z,992.33
2019-05-19T11:12:49.353Z,992.32
2019-05-19T11:13:49.356Z,992.31
2019-05-19T11:14:49.355Z,992.32
2019-05-19T11:15:49.356Z,992.35
2019-05-19T11:16:49.360Z,992.29
2019-05-19T11:17:49.364Z,992.27
2019-05-19T11:18:49.375Z,992.30
2019-05-19T11:19:49.369Z,992.29
2019-05-19T11:20:49.379Z,992.30
2019-05-19T11:21:49.387Z,992.29
2019-05-19T11:22:49.391Z,992.30
2019-05-19T11:23:49.378Z,992.31
2019-05-19T11:24:49.414Z,992.28
2019-05-19T11:25:51.766Z,992.26
2019-05-19T11:26:49.401Z,992.25
2019-05-19T11:27:49.374Z,992.29
2019-05-19T11:28:49.380Z,992.26
2019-05-19T11:29:49.393Z,992.28
2019-05-19T11:30:49.380Z,992.26
2019-05-19T11:31:49.389Z,992.28
2019-05-19T11:32:49.395Z,992.26
2019-05-19T11:33:49.387Z,992.25
2019-05-19T11:34:49.404Z,992.23
2019-05-19T11:35:49.400Z,992.27
2019-05-19T11:36:49.401Z,992.25
2019-05-19T11:37:49.411Z,992.24
2019-05-19T11:38:49.402Z,992.20
2019-05-19T11:39:49.406Z,992.24
2019-05-19T11:40:49.419Z,992.16
2019-05-19T11:41:49.418Z,992.23
2019-05-19T11:42:49.422Z,992.20
2019-05-19T11:43:49.425Z,992.20
2019-05-19T11:44:49.430Z,992.23
2019-05-19T11:45:49.421Z,992.19
2019-05-19T11:46:49.420Z,992.19
2019-05-19T11:47:49.424Z,992.17
2019-05-19T11:48:49.431Z,992.13
2019-05-19T11:49:49.442Z,992.17
2019-05-19T11:50:49.437Z,992.14
2019-05-19T11:51:49.433Z,992.15
2019-05-19T11:52:49.441Z,992.18
2019-05-19T11:53:49.449Z,992.12
2019-05-19T11:54:49.440Z,992.13
2019-05-19T11:55:49.441Z,992.13
2019-05-19T11:56:49.442Z,992.18
2019-05-19T11:57:49.466Z,992.16
2019-05-19T11:58:49.447Z,992.19
2019-05-19T11:59:49.451Z,992.19
2019-05-19T12:00:49.473Z,992.18
2019-05-19T12:01:49.464Z,992.19
2019-05-19T12:02:49.465Z,992.16
2019-05-19T12:03:49.457Z,992.21
2019-05-19T12:04:49.463Z,992.19
2019-05-19T12:05:49.489Z,992.16
2019-05-19T12:06:49.469Z,992.20
2019-05-19T12:07:49.475Z,992.21
2019-05-19T12:08:49.477Z,992.14
2019-05-19T12:09:49.514Z,992.13
2019-05-19T12:10:49.474Z,992.06
2019-05-19T12:11:49.520Z,992.07
2019-05-19T12:12:49.475Z,992.04
2019-05-19T12:13:49.509Z,992.03
2019-05-19T12:14:49.488Z,992.06
2019-05-19T12:15:49.490Z,991.99
2019-05-19T12:16:49.643Z,991.99
2019-05-19T12:17:49.504Z,991.97
2019-05-19T12:18:49.531Z,991.97
2019-05-19T12:19:49.501Z,991.94
2019-05-19T12:20:49.502Z,991.97
2019-05-19T12:21:49.506Z,991.94
2019-05-19T12:22:49.521Z,991.93
2019-05-19T12:23:49.510Z,991.95
2019-05-19T12:24:49.505Z,991.99
2019-05-19T12:25:49.514Z,991.93
2019-05-19T12:26:58.172Z,991.99
2019-05-19T12:29:02.989Z,991.96
2019-05-19T12:29:54.009Z,991.97
2019-05-19T12:30:54.002Z,991.93
2019-05-19T12:31:54.008Z,991.95
2019-05-19T12:32:54.004Z,991.96
2019-05-19T12:33:54.009Z,991.94
2019-05-19T12:34:54.015Z,991.90
2019-05-19T12:35:54.045Z,991.88
2019-05-19T12:36:54.016Z,991.87
2019-05-19T12:37:54.020Z,991.85
2019-05-19T12:38:54.024Z,991.83
2019-05-19T12:39:54.026Z,991.82
2019-05-19T12:40:54.024Z,991.87
2019-05-19T12:41:54.036Z,991.86
2019-05-19T12:42:54.031Z,991.86
2019-05-19T12:43:54.037Z,991.83
2019-05-19T12:44:54.044Z,991.84
2019-05-19T12:45:54.054Z,991.84
2019-05-19T12:46:54.083Z,991.86
2019-05-19T12:47:54.053Z,991.83
2019-05-19T12:48:54.051Z,991.83
2019-05-19T12:49:54.065Z,991.81
2019-05-19T12:50:54.055Z,991.78
2019-05-19T12:51:54.061Z,991.76
2019-05-19T12:52:54.057Z,991.74
2019-05-19T12:53:54.071Z,991.67
2019-05-19T12:54:54.076Z,991.69
2019-05-19T12:55:54.070Z,991.61
2019-05-19T12:56:54.074Z,991.62
2019-05-19T12:57:54.073Z,991.63
2019-05-19T12:58:54.081Z,991.61
2019-05-19T12:59:54.078Z,991.66
2019-05-19T13:00:54.083Z,991.63
2019-05-19T13:01:54.086Z,991.59
2019-05-19T13:02:54.093Z,991.58
2019-05-19T13:03:54.090Z,991.56
2019-05-19T13:05:04.836Z,991.54
2019-05-19T13:05:54.096Z,991.52
2019-05-19T13:06:54.128Z,991.47
2019-05-19T13:07:54.101Z,991.51
2019-05-19T13:08:54.105Z,991.51
2019-05-19T13:09:54.107Z,991.42
2019-05-19T13:10:54.112Z,991.48
2019-05-19T13:11:54.112Z,991.46
2019-05-19T13:12:54.119Z,991.48
2019-05-19T13:13:54.119Z,991.48
2019-05-19T13:14:54.120Z,991.47
2019-05-19T13:15:54.120Z,991.47
2019-05-19T13:16:54.124Z,991.43
2019-05-19T13:17:54.140Z,991.45
2019-05-19T13:18:54.128Z,991.45
2019-05-19T13:19:54.140Z,991.42
2019-05-19T13:20:54.136Z,991.43
2019-05-19T13:21:54.144Z,991.40
2019-05-19T13:22:54.159Z,991.36
2019-05-19T13:23:55.911Z,991.34
2019-05-19T13:24:54.146Z,991.36
2019-05-19T13:25:54.151Z,991.37
2019-05-19T13:26:56.584Z,991.31
2019-05-19T13:27:54.159Z,991.28
2019-05-19T13:28:54.161Z,991.32
2019-05-19T13:29:54.165Z,991.27
2019-05-19T13:30:54.163Z,991.28
2019-05-19T13:31:54.170Z,991.29
2019-05-19T13:32:54.176Z,991.23
2019-05-19T13:33:54.181Z,991.23
2019-05-19T13:34:54.178Z,991.23
2019-05-19T13:35:54.186Z,991.21
2019-05-19T13:36:54.183Z,991.24
2019-05-19T13:37:54.187Z,991.23
2019-05-19T13:38:54.196Z,991.21
2019-05-19T13:39:54.192Z,991.28
2019-05-19T13:40:54.201Z,991.25
2019-05-19T13:41:54.204Z,991.24
2019-05-19T13:42:54.201Z,991.23
2019-05-19T13:43:54.213Z,991.23
2019-05-19T13:44:54.199Z,991.22
2019-05-19T13:45:54.235Z,991.24
2019-05-19T13:46:54.206Z,991.22
2019-05-19T13:47:54.216Z,991.25
2019-05-19T13:48:54.211Z,991.20
2019-05-19T13:49:54.212Z,991.25
2019-05-19T13:50:54.229Z,991.21
2019-05-19T13:51:54.232Z,991.21
2019-05-19T13:52:54.230Z,991.19
2019-05-19T13:53:54.235Z,991.17
2019-05-19T13:54:54.256Z,991.15
2019-05-19T13:55:54.236Z,991.15
2019-05-19T13:56:54.237Z,991.14
2019-05-19T13:57:54.271Z,991.13
2019-05-19T13:58:54.275Z,991.13
2019-05-19T13:59:54.264Z,991.10
2019-05-19T14:00:54.250Z,991.09
2019-05-19T14:01:54.266Z,991.13
2019-05-19T14:02:54.265Z,991.12
2019-05-19T14:03:54.259Z,991.17
2019-05-19T14:04:54.280Z,991.15
2019-05-19T14:05:54.267Z,991.16
2019-05-19T14:06:54.302Z,991.14
2019-05-19T14:07:54.301Z,991.15
2019-05-19T14:08:54.358Z,991.15
2019-05-19T14:09:54.271Z,991.17
2019-05-19T14:10:54.282Z,991.21
2019-05-19T14:11:54.286Z,991.16
2019-05-19T14:12:54.290Z,991.14
2019-05-19T14:13:54.284Z,991.14
2019-05-19T14:14:54.319Z,991.16
2019-05-19T14:15:54.311Z,991.12
2019-05-19T14:16:54.292Z,991.14
2019-05-19T14:17:54.302Z,991.11
2019-05-19T14:18:54.307Z,991.08
2019-05-19T14:19:54.311Z,991.10
2019-05-19T14:20:54.313Z,991.08
2019-05-19T14:21:54.331Z,991.04
2019-05-19T14:22:54.312Z,991.10
2019-05-19T14:23:54.320Z,991.06
2019-05-19T14:24:54.344Z,991.08
2019-05-19T14:25:54.326Z,991.07
2019-05-19T14:26:54.335Z,991.05
2019-05-19T14:27:54.336Z,991.05
2019-05-19T14:28:54.334Z,991.08
2019-05-19T14:29:54.331Z,990.98
2019-05-19T14:30:54.358Z,990.97
2019-05-19T14:31:54.345Z,990.98
2019-05-19T14:32:57.370Z,990.96
2019-05-19T14:33:54.359Z,990.94
2019-05-19T14:34:54.357Z,990.97
2019-05-19T14:35:54.358Z,990.96
2019-05-19T14:36:54.361Z,991.00
2019-05-19T14:37:54.415Z,990.93
2019-05-19T14:38:54.358Z,990.95
2019-05-19T14:39:54.370Z,990.93
2019-05-19T14:40:54.366Z,990.90
2019-05-19T14:41:54.374Z,990.87
2019-05-19T14:42:54.382Z,990.88
2019-05-19T14:43:54.389Z,990.91
2019-05-19T14:44:54.393Z,990.87
2019-05-19T14:45:54.385Z,990.81
2019-05-19T14:46:54.390Z,990.84
2019-05-19T14:47:54.395Z,990.81
2019-05-19T14:48:54.392Z,990.78
2019-05-19T14:49:54.395Z,990.77
2019-05-19T14:50:54.396Z,990.74
2019-05-19T14:51:54.400Z,990.72
2019-05-19T14:52:54.414Z,990.75
2019-05-19T14:53:54.410Z,990.75
2019-05-19T14:54:54.410Z,990.70
2019-05-19T14:55:54.417Z,990.69
2019-05-19T14:56:54.419Z,990.69
2019-05-19T14:57:54.420Z,990.77
2019-05-19T14:58:54.428Z,990.72
2019-05-19T14:59:54.432Z,990.71
2019-05-19T15:00:54.433Z,990.71
2019-05-19T15:01:54.438Z,990.71
2019-05-19T15:02:54.446Z,990.68
2019-05-19T15:03:54.444Z,990.70
2019-05-19T15:04:54.441Z,990.66
2019-05-19T15:05:54.459Z,990.67
2019-05-19T15:06:54.440Z,990.65
2019-05-19T15:07:54.491Z,990.65
2019-05-19T15:08:54.459Z,990.70
2019-05-19T15:09:54.467Z,990.71
2019-05-19T15:10:54.456Z,990.68
2019-05-19T15:11:54.464Z,990.66
2019-05-19T15:12:54.469Z,990.71
2019-05-19T15:13:54.474Z,990.67
2019-05-19T15:14:54.473Z,990.66
2019-05-19T15:15:57.826Z,990.67
2019-05-19T15:16:54.474Z,990.74
2019-05-19T15:17:54.485Z,990.71
2019-05-19T15:18:54.482Z,990.73
2019-05-19T15:19:54.486Z,990.75
2019-05-19T15:20:54.494Z,990.73
2019-05-19T15:21:54.494Z,990.75
2019-05-19T15:22:54.489Z,990.73
2019-05-19T15:23:54.492Z,990.75
2019-05-19T15:24:54.502Z,990.72
2019-05-19T15:25:54.499Z,990.74
2019-05-19T15:26:54.511Z,990.72
2019-05-19T15:28:00.127Z,990.69
2019-05-19T15:28:54.505Z,990.69
2019-05-19T15:29:54.529Z,990.71
2019-05-19T15:30:54.536Z,990.70
2019-05-19T15:31:54.515Z,990.69
2019-05-19T15:32:54.534Z,990.66
2019-05-19T15:33:54.524Z,990.69
2019-05-19T15:34:54.531Z,990.62
2019-05-19T15:35:54.531Z,990.62
2019-05-19T15:36:54.538Z,990.57
2019-05-19T15:37:54.534Z,990.60
2019-05-19T15:38:54.540Z,990.61
2019-05-19T15:39:54.547Z,990.59
2019-05-19T15:40:54.543Z,990.64
2019-05-19T15:41:54.548Z,990.69
2019-05-19T15:42:54.546Z,990.67
2019-05-19T15:43:54.554Z,990.70
2019-05-19T15:44:54.552Z,990.70
2019-05-19T15:45:54.562Z,990.75
2019-05-19T15:46:54.562Z,990.75
2019-05-19T15:47:54.568Z,990.78
2019-05-19T15:48:54.572Z,990.78
2019-05-19T15:49:54.561Z,990.80
2019-05-19T15:50:54.572Z,990.79
2019-05-19T15:52:02.204Z,990.77
2019-05-19T15:52:54.593Z,990.79
2019-05-19T15:53:54.589Z,990.82
2019-05-19T15:54:54.588Z,990.80
2019-05-19T15:55:54.619Z,990.78
2019-05-19T15:56:54.598Z,990.77
2019-05-19T15:57:54.589Z,990.75
2019-05-19T15:58:54.598Z,990.75
2019-05-19T15:59:54.611Z,990.73
2019-05-19T16:00:54.593Z,990.70
2019-05-19T16:01:54.596Z,990.69
2019-05-19T16:02:54.602Z,990.68
2019-05-19T16:03:54.606Z,990.68
2019-05-19T16:04:54.605Z,990.65
2019-05-19T16:05:54.661Z,990.68
2019-05-19T16:06:54.610Z,990.65
2019-05-19T16:07:54.606Z,990.62
2019-05-19T16:08:54.615Z,990.67
2019-05-19T16:09:54.614Z,990.66
2019-05-19T16:10:54.616Z,990.69
2019-05-19T16:11:54.622Z,990.63
2019-05-19T16:12:54.619Z,990.61
2019-05-19T16:13:54.623Z,990.65
2019-05-19T16:14:54.622Z,990.62
2019-05-19T16:15:54.636Z,990.61
2019-05-19T16:16:54.626Z,990.56
2019-05-19T16:17:54.745Z,990.54
2019-05-19T16:18:54.668Z,990.56
2019-05-19T16:19:54.635Z,990.55
2019-05-19T16:20:54.646Z,990.55
2019-05-19T16:21:54.638Z,990.53
2019-05-19T16:22:54.643Z,990.55
2019-05-19T16:23:54.642Z,990.56
2019-05-19T16:24:54.641Z,990.57
2019-05-19T16:25:54.646Z,990.62
2019-05-19T16:26:54.643Z,990.58
2019-05-19T16:27:54.643Z,990.56
2019-05-19T16:28:54.646Z,990.57
2019-05-19T16:29:54.654Z,990.55
2019-05-19T16:30:54.649Z,990.57
2019-05-19T16:31:54.662Z,990.59
2019-05-19T16:32:54.665Z,990.55
2019-05-19T16:33:54.697Z,990.55
2019-05-19T16:34:54.671Z,990.49
2019-05-19T16:35:54.674Z,990.52
2019-05-19T16:36:54.666Z,990.51
2019-05-19T16:37:54.666Z,990.54
2019-05-19T16:38:54.675Z,990.53
2019-05-19T16:39:54.679Z,990.50
2019-05-19T16:40:54.686Z,990.50
2019-05-19T16:41:54.693Z,990.50
2019-05-19T16:42:54.676Z,990.53
2019-05-19T16:43:54.677Z,990.47
2019-05-19T16:44:54.681Z,990.51
2019-05-19T16:45:54.678Z,990.50
2019-05-19T16:46:54.679Z,990.53
2019-05-19T16:47:54.717Z,990.53
2019-05-19T16:48:54.681Z,990.53
2019-05-19T16:49:54.685Z,990.59
2019-05-19T16:50:54.829Z,990.56
2019-05-19T16:51:54.690Z,990.62
2019-05-19T16:52:54.732Z,990.61
2019-05-19T16:53:54.711Z,990.63
2019-05-19T16:54:54.702Z,990.63
2019-05-19T16:55:54.698Z,990.63